Time;durP1;ratioP1;P1;durP2;ratioP2;P2;SDS_P1;SDS_P2;PMS_P1;PMS_P2;Temp;Humidity;BMP_temperature;BMP_pressure;BME280_temperature;BME280_humidity;BME280_pressure;Samples;Min_cycle;Max_cycle;Signal;HPM_P1;HPM_P2
2021/07/05 00:01:35;;;;;;;;;2.75;2.00;;;;;25.26;49.25;100230.50;4959597;28;48168;-72
2021/07/05 00:04:01;;;;;;;;;4.00;4.00;;;;;25.23;48.53;100215.53;4959259;28;47115;-72
2021/07/05 00:06:26;;;;;;;;;3.00;3.00;;;;;25.19;48.63;100227.31;4930177;28;45359;-72
2021/07/05 00:08:52;;;;;;;;;3.75;3.75;;;;;25.19;49.40;100226.47;4959312;28;45887;-72
2021/07/05 00:11:17;;;;;;;;;4.50;3.75;;;;;25.23;49.23;100223.53;4942912;28;47992;-72
2021/07/05 00:13:43;;;;;;;;;3.25;3.25;;;;;25.22;48.77;100219.13;4958977;28;54100;-72
2021/07/05 00:16:08;;;;;;;;;3.25;3.25;;;;;25.20;48.44;100206.84;4959093;28;45444;-72
2021/07/05 00:18:33;;;;;;;;;2.75;2.50;;;;;25.12;48.61;100199.28;4959788;28;45350;-72
2021/07/05 00:20:59;;;;;;;;;3.50;3.00;;;;;25.12;48.51;100198.44;4960526;28;45393;-72
2021/07/05 00:23:25;;;;;;;;;5.75;3.00;;;;;25.14;48.17;100197.38;4960494;28;45464;-72
2021/07/05 00:25:50;;;;;;;;;3.75;3.75;;;;;25.17;48.57;100218.53;4945774;28;45387;-72
2021/07/05 00:28:16;;;;;;;;;4.00;4.00;;;;;25.17;48.26;100223.03;4960070;28;46029;-72
2021/07/05 00:30:41;;;;;;;;;2.00;2.00;;;;;25.15;48.20;100219.59;4947592;28;54334;-72
2021/07/05 00:33:06;;;;;;;;;2.75;2.75;;;;;25.12;47.74;100215.31;4958925;28;48447;-72
2021/07/05 00:35:32;;;;;;;;;5.75;3.00;;;;;25.13;48.66;100222.38;4910807;28;46916;-72
2021/07/05 00:37:57;;;;;;;;;2.25;2.25;;;;;25.13;47.90;100222.38;4960213;28;45412;-72
2021/07/05 00:40:23;;;;;;;;;4.50;3.00;;;;;25.06;48.51;100221.84;4958967;28;45691;-72
2021/07/05 00:42:49;;;;;;;;;3.75;2.75;;;;;25.02;47.72;100214.06;4960065;28;45489;-72
2021/07/05 00:45:15;;;;;;;;;2.75;2.75;;;;;24.97;48.57;100211.69;4959267;28;62136;-72
2021/07/05 00:47:40;;;;;;;;;3.25;3.25;;;;;24.95;47.70;100212.75;4960091;28;45374;-72
2021/07/05 00:50:06;;;;;;;;;2.25;2.25;;;;;24.89;47.96;100199.75;4958654;28;45329;-72
2021/07/05 00:52:33;;;;;;;;;4.25;3.25;;;;;24.86;48.21;100216.81;4958811;28;45261;-72
2021/07/05 00:54:58;;;;;;;;;2.50;2.00;;;;;24.85;47.80;100215.09;4926663;28;45355;-72
2021/07/05 00:57:24;;;;;;;;;4.50;4.00;;;;;24.81;48.55;100221.53;4941779;28;60359;-72
2021/07/05 00:59:54;;;;;;;;;4.00;4.00;;;;;24.79;48.03;100226.13;4926575;28;45376;-72
2021/07/05 01:02:21;;;;;;;;;3.75;3.00;;;;;24.79;47.67;100212.78;4926564;28;45632;-72
2021/07/05 01:04:47;;;;;;;;;5.00;3.00;;;;;24.78;48.65;100203.03;4942716;28;45409;-72
2021/07/05 01:07:13;;;;;;;;;3.00;3.00;;;;;24.83;48.76;100186.75;4944930;28;47266;-73
2021/07/05 01:09:39;;;;;;;;;3.50;3.50;;;;;24.90;48.26;100178.28;4961223;28;59749;-72
2021/07/05 01:12:04;;;;;;;;;4.00;4.00;;;;;24.92;47.95;100172.84;4962151;28;45444;-72
2021/07/05 01:14:31;;;;;;;;;2.75;2.50;;;;;24.89;48.74;100178.38;4962769;28;45497;-72
2021/07/05 01:16:57;;;;;;;;;4.25;4.00;;;;;24.93;48.83;100193.25;4962414;28;46808;-72
2021/07/05 01:19:22;;;;;;;;;3.00;3.00;;;;;24.96;48.70;100177.06;4976988;28;45370;-72
2021/07/05 01:21:47;;;;;;;;;6.25;2.00;;;;;25.00;48.43;100167.91;4961581;28;45431;-72
2021/07/05 01:24:13;;;;;;;;;4.50;3.00;;;;;25.01;48.72;100154.47;4957891;28;62097;-72
2021/07/05 01:26:38;;;;;;;;;4.25;3.75;;;;;25.03;48.58;100159.78;4959692;28;45485;-72
2021/07/05 01:29:04;;;;;;;;;4.00;3.00;;;;;25.06;49.12;100155.09;4939558;28;67097;-72
2021/07/05 01:31:29;;;;;;;;;3.50;3.50;;;;;25.09;48.68;100162.06;4941515;28;45429;-72
2021/07/05 01:33:55;;;;;;;;;4.00;4.00;;;;;25.09;47.78;100157.56;4954510;28;45303;-72
2021/07/05 01:36:21;;;;;;;;;4.00;4.00;;;;;25.06;48.46;100154.25;4948446;28;46068;-72
2021/07/05 01:38:49;;;;;;;;;3.00;3.00;;;;;25.06;47.70;100140.91;4944508;28;45348;-72
2021/07/05 01:41:15;;;;;;;;;2.25;2.25;;;;;25.01;48.58;100153.63;4946883;28;45366;-72
2021/07/05 01:43:40;;;;;;;;;4.00;4.00;;;;;24.96;48.22;100166.41;4943839;28;46284;-72
2021/07/05 01:46:06;;;;;;;;;4.00;4.00;;;;;24.92;48.50;100173.72;4944241;28;47320;-72
2021/07/05 01:48:31;;;;;;;;;3.50;2.50;;;;;24.91;48.19;100173.81;4942180;28;67970;-72
2021/07/05 01:50:56;;;;;;;;;4.25;4.00;;;;;24.84;48.16;100169.78;4948863;28;53075;-72
2021/07/05 01:53:22;;;;;;;;;4.00;3.00;;;;;24.79;48.78;100172.72;4960260;28;62058;-72
2021/07/05 01:55:47;;;;;;;;;3.50;2.50;;;;;24.74;48.92;100162.31;4958531;28;45964;-72
2021/07/05 01:58:13;;;;;;;;;4.00;3.00;;;;;24.71;47.93;100175.84;4942302;28;45387;-72
2021/07/05 02:00:41;;;;;;;;;3.25;3.00;;;;;24.65;48.95;100167.31;4961074;28;45283;-73
2021/07/05 02:03:06;;;;;;;;;3.00;3.00;;;;;24.63;48.89;100158.56;4962367;28;45369;-72
2021/07/05 02:05:32;;;;;;;;;3.00;3.00;;;;;24.63;48.68;100164.75;4960850;28;47112;-72
2021/07/05 02:07:57;;;;;;;;;3.00;3.00;;;;;24.64;48.60;100165.63;4937874;28;45461;-72
2021/07/05 02:10:25;;;;;;;;;4.75;4.25;;;;;24.58;48.29;100169.47;4938798;28;45323;-72
2021/07/05 02:12:51;;;;;;;;;3.50;3.00;;;;;24.54;48.08;100173.28;4944376;28;45450;-72
2021/07/05 02:15:17;;;;;;;;;3.25;3.00;;;;;24.48;48.45;100170.97;4949564;28;46722;-72
2021/07/05 02:17:42;;;;;;;;;4.00;3.75;;;;;24.50;49.13;100166.44;4947960;28;45187;-72
2021/07/05 02:20:10;;;;;;;;;2.00;2.00;;;;;24.52;48.72;100173.38;4954989;28;45433;-72
2021/07/05 02:22:35;;;;;;;;;3.25;3.25;;;;;24.54;48.92;100167.97;4946845;28;45447;-72
2021/07/05 02:25:02;;;;;;;;;3.75;3.75;;;;;24.55;49.12;100160.81;4948824;28;54587;-72
2021/07/05 02:27:28;;;;;;;;;3.00;3.00;;;;;24.60;49.02;100158.75;4948015;28;45471;-72
2021/07/05 02:29:53;;;;;;;;;3.00;2.75;;;;;24.58;49.30;100157.97;4941488;28;45455;-72
2021/07/05 02:32:18;;;;;;;;;4.50;3.75;;;;;24.59;48.68;100159.72;4937563;28;54536;-72
2021/07/05 02:34:44;;;;;;;;;2.00;2.00;;;;;24.62;48.63;100152.38;4948988;28;54046;-72
2021/07/05 02:37:09;;;;;;;;;4.00;4.00;;;;;24.62;48.88;100147.03;4953320;28;66075;-72
2021/07/05 02:39:34;;;;;;;;;2.50;2.00;;;;;24.60;49.14;100143.59;4950333;28;45434;-72
2021/07/05 02:42:00;;;;;;;;;2.00;2.00;;;;;24.61;49.04;100133.78;4920133;28;45499;-72
2021/07/05 02:44:25;;;;;;;;;2.00;2.00;;;;;24.59;48.93;100125.88;4946775;28;47035;-72
2021/07/05 02:46:51;;;;;;;;;2.00;2.00;;;;;24.55;49.16;100123.47;4942518;28;67114;-72
2021/07/05 02:49:16;;;;;;;;;2.00;2.00;;;;;24.45;48.91;100125.81;4952300;28;45263;-72
2021/07/05 02:51:41;;;;;;;;;2.25;2.00;;;;;24.30;48.86;100115.97;4940067;28;50952;-72
2021/07/05 02:54:07;;;;;;;;;4.00;4.00;;;;;24.25;49.35;100111.78;4943634;28;64054;-72
2021/07/05 02:56:32;;;;;;;;;3.00;3.00;;;;;24.19;49.81;100111.28;4921651;28;48920;-72
2021/07/05 02:58:58;;;;;;;;;4.75;3.75;;;;;24.16;49.72;100112.31;4938495;28;45286;-72
2021/07/05 03:01:23;;;;;;;;;3.00;2.00;;;;;24.13;49.52;100099.13;4941913;28;62834;-72
2021/07/05 03:03:49;;;;;;;;;4.75;3.00;;;;;24.11;50.17;100110.84;4955393;28;45318;-72
2021/07/05 03:06:14;;;;;;;;;3.25;2.75;;;;;24.02;50.30;100093.56;4952737;28;51695;-72
2021/07/05 03:08:40;;;;;;;;;4.00;2.50;;;;;24.04;50.46;100085.47;4946876;28;45357;-72
2021/07/05 03:11:09;;;;;;;;;5.25;2.75;;;;;23.99;50.49;100088.41;4951671;28;45704;-72
2021/07/05 03:13:34;;;;;;;;;2.50;2.25;;;;;24.03;51.04;100087.28;4946052;28;45274;-72
2021/07/05 03:15:59;;;;;;;;;3.50;3.50;;;;;24.03;50.81;100094.41;4951109;28;45318;-72
2021/07/05 03:18:25;;;;;;;;;4.00;4.00;;;;;23.94;51.09;100095.81;4943333;28;54290;-72
2021/07/05 03:20:51;;;;;;;;;3.00;3.00;;;;;23.91;51.36;100094.19;4954882;28;57497;-72
2021/07/05 03:23:17;;;;;;;;;4.75;3.00;;;;;23.95;50.49;100095.72;4943519;28;45294;-73
2021/07/05 03:25:42;;;;;;;;;3.00;3.00;;;;;23.90;51.37;100097.78;4950068;28;45470;-72
2021/07/05 03:28:09;;;;;;;;;4.50;3.50;;;;;23.88;50.85;100094.31;4939902;28;45175;-73
2021/07/05 03:30:36;;;;;;;;;4.00;3.00;;;;;23.83;51.09;100092.88;4935234;28;45774;-72
2021/07/05 03:33:01;;;;;;;;;3.75;3.75;;;;;23.75;51.74;100090.66;4970404;28;46005;-73
2021/07/05 03:35:27;;;;;;;;;3.25;3.25;;;;;23.71;51.95;100088.22;4956683;28;45500;-73
2021/07/05 03:37:53;;;;;;;;;3.75;3.75;;;;;23.64;51.49;100082.41;4947281;28;46697;-72
2021/07/05 03:40:23;;;;;;;;;5.00;5.00;;;;;23.66;51.62;100086.69;4953872;28;45426;-72
2021/07/05 03:42:49;;;;;;;;;5.00;3.00;;;;;23.66;51.51;100073.38;4948205;28;45266;-72
2021/07/05 03:45:15;;;;;;;;;3.00;3.00;;;;;23.69;52.23;100075.84;4953255;28;45243;-72
2021/07/05 03:47:40;;;;;;;;;8.00;3.00;;;;;23.68;51.66;100066.13;4946208;28;45408;-72
2021/07/05 03:50:07;;;;;;;;;4.00;4.00;;;;;23.65;51.86;100069.00;4957482;28;53790;-72
2021/07/05 03:52:32;;;;;;;;;5.25;4.25;;;;;23.64;52.10;100067.28;4959660;28;45419;-72
2021/07/05 03:54:58;;;;;;;;;4.00;3.00;;;;;23.63;52.09;100076.22;4957185;28;45422;-71
2021/07/05 03:57:23;;;;;;;;;3.50;3.50;;;;;23.58;52.21;100067.56;4955709;28;53614;-72
2021/07/05 03:59:53;;;;;;;;;3.00;3.00;;;;;23.59;51.92;100064.00;4958864;28;68161;-72
2021/07/05 04:02:21;;;;;;;;;2.50;2.50;;;;;23.62;52.39;100058.47;4952392;28;45314;-72
2021/07/05 04:04:48;;;;;;;;;5.00;4.00;;;;;23.60;52.39;100047.06;4953336;28;45452;-72
2021/07/05 04:07:14;;;;;;;;;2.50;2.50;;;;;23.62;52.07;100041.63;4964482;28;45373;-72
2021/07/05 04:09:43;;;;;;;;;3.75;3.00;;;;;23.64;51.99;100034.44;4957713;28;45553;-72
2021/07/05 04:12:09;;;;;;;;;2.50;2.50;;;;;23.63;52.35;100022.03;4945987;28;45333;-72
2021/07/05 04:14:35;;;;;;;;;3.00;3.00;;;;;23.63;52.39;100014.94;4944549;28;45439;-73
2021/07/05 04:17:01;;;;;;;;;3.50;3.25;;;;;23.63;51.78;100016.72;4944126;28;45500;-73
2021/07/05 04:19:26;;;;;;;;;4.50;4.50;;;;;23.61;51.78;100014.13;4944902;28;54569;-73
2021/07/05 04:21:51;;;;;;;;;3.25;3.25;;;;;23.58;52.10;100008.97;4950201;28;63143;-73
2021/07/05 04:24:17;;;;;;;;;3.75;3.00;;;;;23.59;52.03;100008.03;4946792;28;59341;-73
2021/07/05 04:26:42;;;;;;;;;3.00;2.50;;;;;23.58;52.50;100008.09;4968928;28;61404;-73
2021/07/05 04:29:07;;;;;;;;;4.00;4.00;;;;;23.53;52.60;100005.69;4960317;28;45253;-73
2021/07/05 04:31:33;;;;;;;;;4.25;4.00;;;;;23.52;52.28;100011.97;4959176;28;62571;-72
2021/07/05 04:33:58;;;;;;;;;5.50;3.25;;;;;23.55;52.66;100021.59;4954985;28;52497;-73
2021/07/05 04:36:24;;;;;;;;;3.00;3.00;;;;;23.55;52.87;100017.13;4953421;28;58015;-73
2021/07/05 04:38:49;;;;;;;;;3.75;3.75;;;;;23.54;52.58;100014.53;4953353;28;51893;-73
2021/07/05 04:41:14;;;;;;;;;3.75;3.75;;;;;23.54;52.63;100022.53;4955720;28;46990;-73
2021/07/05 04:43:40;;;;;;;;;3.25;3.00;;;;;23.50;52.60;100023.66;4939594;28;45492;-72
2021/07/05 04:46:07;;;;;;;;;3.00;3.00;;;;;23.49;52.31;100020.13;4950783;28;45883;-72
2021/07/05 04:48:33;;;;;;;;;5.75;3.75;;;;;23.49;52.71;100020.13;4961044;28;45419;-72
2021/07/05 04:50:58;;;;;;;;;3.25;3.25;;;;;23.46;52.46;100009.66;4943070;28;48246;-72
2021/07/05 04:53:25;;;;;;;;;3.00;3.00;;;;;23.47;52.48;100003.38;4955245;28;45375;-73
2021/07/05 04:55:51;;;;;;;;;5.75;4.75;;;;;23.44;52.73;99995.53;4976402;28;46316;-73
2021/07/05 04:58:16;;;;;;;;;4.75;3.00;;;;;23.44;52.86;99982.22;4960260;28;45499;-73
2021/07/05 05:00:42;;;;;;;;;3.00;3.00;;;;;23.44;53.00;99954.75;4955412;28;67483;-73
2021/07/05 05:03:07;;;;;;;;;4.50;4.50;;;;;23.41;53.00;99951.31;4956801;28;59070;-73
2021/07/05 05:05:33;;;;;;;;;3.00;2.75;;;;;23.40;52.73;99932.75;4953831;28;45651;-74
2021/07/05 05:07:58;;;;;;;;;4.00;4.00;;;;;23.42;52.10;99928.19;4939352;28;45520;-72
2021/07/05 05:10:27;;;;;;;;;4.50;3.25;;;;;23.38;52.85;99932.00;4948885;28;45417;-72
2021/07/05 05:12:53;;;;;;;;;2.00;2.00;;;;;23.38;52.38;99934.66;4937827;28;45456;-73
2021/07/05 05:15:18;;;;;;;;;2.00;2.00;;;;;23.38;52.33;99921.34;4954674;28;45331;-73
2021/07/05 05:17:44;;;;;;;;;3.00;3.00;;;;;23.41;52.00;99923.81;4957345;28;45517;-71
2021/07/05 05:20:10;;;;;;;;;2.00;2.00;;;;;23.39;52.40;99923.91;4942618;28;45356;-78
2021/07/05 05:22:36;;;;;;;;;3.00;3.00;;;;;23.44;52.43;99920.97;4924430;28;45655;-72
2021/07/05 05:25:02;;;;;;;;;4.00;2.75;;;;;23.41;52.68;99906.03;4952651;28;45353;-72
2021/07/05 05:27:27;;;;;;;;;4.00;4.00;;;;;23.34;52.72;99890.50;4966077;28;45249;-72
2021/07/05 05:29:53;;;;;;;;;3.00;3.00;;;;;23.33;52.75;99902.94;4961003;28;45325;-72
2021/07/05 05:32:18;;;;;;;;;4.00;4.00;;;;;23.38;54.22;99906.22;4958576;28;61137;-71
2021/07/05 05:34:44;;;;;;;;;4.00;4.00;;;;;23.41;53.40;99905.19;4956962;28;45611;-73
2021/07/05 05:37:09;;;;;;;;;2.00;2.00;;;;;23.42;53.39;99918.41;4956781;28;45485;-72
2021/07/05 05:39:34;;;;;;;;;4.00;4.00;;;;;23.38;53.37;99910.69;4952044;28;67871;-72
2021/07/05 05:42:00;;;;;;;;;3.00;3.00;;;;;23.36;53.72;99913.41;4954946;28;46231;-73
2021/07/05 05:44:25;;;;;;;;;3.00;3.00;;;;;23.38;53.56;99913.34;4948952;28;60461;-74
2021/07/05 05:46:51;;;;;;;;;3.25;2.75;;;;;23.36;53.95;99920.56;4960061;28;45328;-74
2021/07/05 05:49:16;;;;;;;;;4.50;3.75;;;;;23.37;54.00;99922.28;4945976;28;46183;-72
2021/07/05 05:51:41;;;;;;;;;15.00;12.00;;;;;23.35;53.50;99938.34;4954562;28;45248;-73
2021/07/05 05:54:09;;;;;;;;;17.00;14.75;;;;;23.36;53.80;99944.50;4959157;28;45251;-75
2021/07/05 05:56:35;;;;;;;;;10.75;8.00;;;;;23.38;53.84;99938.19;4958064;28;45400;-73
2021/07/05 05:59:06;;;;;;;;;7.00;7.00;;;;;23.44;53.87;99955.59;4939140;28;48161;-73
2021/07/05 06:01:32;;;;;;;;;4.50;4.50;;;;;23.47;53.55;99950.13;4938826;28;45277;-74
2021/07/05 06:03:57;;;;;;;;;7.25;4.50;;;;;23.46;53.43;99950.22;4957923;28;45404;-76
2021/07/05 06:06:23;;;;;;;;;3.00;3.00;;;;;23.39;53.57;99929.25;4953362;28;45359;-77
2021/07/05 06:08:48;;;;;;;;;5.50;4.00;;;;;23.47;53.85;99952.78;4955639;28;46184;-80
2021/07/05 06:11:13;;;;;;;;;5.00;3.75;;;;;23.52;53.91;99957.84;4935642;28;45190;-72
2021/07/05 06:13:40;;;;;;;;;4.00;4.00;;;;;23.54;53.46;99945.28;4947230;28;46515;-79
2021/07/05 06:16:06;;;;;;;;;5.25;4.00;;;;;23.53;53.75;99931.09;4958015;28;45588;-77
2021/07/05 06:18:31;;;;;;;;;6.75;5.00;;;;;23.55;53.73;99939.03;4944756;28;45448;-72
2021/07/05 06:20:56;;;;;;;;;5.00;4.50;;;;;23.66;54.68;99952.63;4945678;28;51552;-73
2021/07/05 06:23:25;;;;;;;;;4.25;3.50;;;;;23.77;53.80;99934.19;4958101;28;58672;-74
2021/07/05 06:25:50;;;;;;;;;4.00;4.00;;;;;23.86;52.75;99938.13;4967514;28;45302;-74
2021/07/05 06:28:16;;;;;;;;;3.00;3.00;;;;;23.81;51.67;99933.09;4960818;28;50966;-76
2021/07/05 06:30:42;;;;;;;;;3.75;3.75;;;;;23.71;52.05;99933.69;4959063;28;45352;-73
2021/07/05 06:33:07;;;;;;;;;3.00;3.00;;;;;23.67;51.48;99928.53;4959474;28;45335;-73
2021/07/05 06:35:33;;;;;;;;;4.00;4.00;;;;;23.69;51.95;99933.78;4957549;28;45587;-73
2021/07/05 06:37:58;;;;;;;;;3.25;3.25;;;;;23.68;52.19;99929.41;4968152;28;61137;-73
2021/07/05 06:40:25;;;;;;;;;6.50;4.00;;;;;23.66;51.47;99921.50;4954445;28;45238;-74
2021/07/05 06:42:51;;;;;;;;;4.00;4.00;;;;;23.59;51.54;99929.91;4948618;28;45239;-72
2021/07/05 06:45:16;;;;;;;;;4.25;4.00;;;;;23.44;51.71;99925.44;4952042;28;45596;-73
2021/07/05 06:47:42;;;;;;;;;6.00;4.00;;;;;23.36;51.67;99926.72;4945385;28;59345;-74
2021/07/05 06:50:07;;;;;;;;;6.75;4.75;;;;;23.21;51.41;99905.47;4929510;28;45440;-73
2021/07/05 06:52:33;;;;;;;;;7.00;5.50;;;;;23.13;51.75;99921.88;4960809;28;45372;-72
2021/07/05 06:55:00;;;;;;;;;7.00;7.00;;;;;23.03;52.14;99910.00;4942134;28;45537;-72
2021/07/05 06:57:29;;;;;;;;;6.00;6.00;;;;;23.04;53.18;99925.03;4955504;28;45825;-73
2021/07/05 06:59:55;;;;;;;;;5.50;3.50;;;;;23.12;52.80;99933.47;4950499;28;45275;-71
2021/07/05 07:02:20;;;;;;;;;5.50;5.50;;;;;23.27;53.14;99934.38;4957491;28;45430;-69
2021/07/05 07:04:46;;;;;;;;;8.50;7.00;;;;;23.35;52.28;99932.16;4941521;28;45526;-71
2021/07/05 07:07:11;;;;;;;;;5.75;5.75;;;;;23.39;52.59;99933.72;4948424;28;45973;-71
2021/07/05 07:09:36;;;;;;;;;5.00;5.00;;;;;23.46;52.84;99945.75;4943378;28;50792;-71
2021/07/05 07:12:02;;;;;;;;;6.50;6.25;;;;;23.54;52.42;99946.13;4928537;28;57939;-71
2021/07/05 07:14:27;;;;;;;;;6.00;5.25;;;;;23.56;52.14;99946.94;4954113;28;45573;-72
2021/07/05 07:17:02;;;;;;;;;5.00;5.00;;;;;23.52;52.74;99944.50;4926790;28;46670;-73
2021/07/05 07:19:28;;;;;;;;;6.75;6.75;;;;;23.50;52.38;99944.59;4938629;28;45820;-72
2021/07/05 07:21:53;;;;;;;;;5.50;5.50;;;;;23.56;52.15;99952.25;4961106;28;45578;-72
2021/07/05 07:24:19;;;;;;;;;5.00;5.00;;;;;23.60;51.93;99953.81;4956279;28;45466;-71
2021/07/05 07:26:44;;;;;;;;;6.50;5.25;;;;;23.62;51.86;99956.38;4973522;28;46196;-72
2021/07/05 07:29:10;;;;;;;;;6.25;5.00;;;;;23.58;51.40;99947.69;4959640;28;45553;-71
2021/07/05 07:31:36;;;;;;;;;5.50;5.50;;;;;23.49;51.54;99948.22;4965919;28;45383;-72
2021/07/05 07:34:01;;;;;;;;;6.00;6.00;;;;;23.48;51.75;99943.84;4960036;28;45483;-71
2021/07/05 07:36:27;;;;;;;;;6.00;6.00;;;;;23.51;52.45;99956.13;4959219;28;47983;-71
2021/07/05 07:38:56;;;;;;;;;5.00;5.00;;;;;23.55;52.23;99961.19;4956721;28;45432;-73
2021/07/05 07:41:23;;;;;;;;;4.75;4.75;;;;;23.65;52.76;99958.91;4948453;28;45392;-74
2021/07/05 07:43:49;;;;;;;;;5.00;5.00;;;;;23.72;52.86;99960.28;4956130;28;45440;-71
2021/07/05 07:46:14;;;;;;;;;5.25;5.25;;;;;23.83;52.97;99959.66;4951689;28;45839;-72
2021/07/05 07:48:39;;;;;;;;;4.75;4.00;;;;;23.96;52.69;99969.47;4956966;28;45370;-72
2021/07/05 07:51:08;;;;;;;;;6.00;5.00;;;;;24.06;52.30;99967.13;4947959;28;60320;-74
2021/07/05 07:53:33;;;;;;;;;4.50;4.50;;;;;24.03;52.18;99964.66;4940229;28;45553;-71
2021/07/05 07:55:59;;;;;;;;;5.00;5.00;;;;;23.89;51.85;99956.59;4948668;28;65946;-71
2021/07/05 07:58:33;;;;;;;;;6.00;6.00;;;;;23.80;52.58;99943.81;4958345;28;45286;-72
2021/07/05 08:01:01;;;;;;;;;6.00;6.00;;;;;23.86;52.62;99939.00;4958859;28;45522;-71
2021/07/05 08:03:26;;;;;;;;;5.25;5.25;;;;;23.91;52.36;99944.94;4953773;28;57642;-72
2021/07/05 08:05:54;;;;;;;;;7.00;7.00;;;;;23.94;51.60;99941.22;4950956;28;46358;-72
2021/07/05 08:08:20;;;;;;;;;8.25;6.50;;;;;23.82;51.64;99936.63;4931512;28;45443;-71
2021/07/05 08:10:45;;;;;;;;;5.75;5.00;;;;;23.76;52.25;99940.47;4956878;28;45477;-72
2021/07/05 08:13:11;;;;;;;;;6.75;5.50;;;;;23.81;52.52;99933.09;4958534;28;45443;-72
2021/07/05 08:15:36;;;;;;;;;7.00;7.00;;;;;23.90;51.71;99931.69;4938874;28;68898;-72
2021/07/05 08:18:02;;;;;;;;;7.00;5.75;;;;;23.93;51.71;99927.03;4935074;28;45459;-72
2021/07/05 08:20:30;;;;;;;;;5.00;4.50;;;;;23.88;51.62;99930.91;4955319;28;45308;-72
2021/07/05 08:22:56;;;;;;;;;4.00;4.00;;;;;23.86;51.80;99938.13;4949663;28;45619;-72
2021/07/05 08:25:22;;;;;;;;;7.00;6.00;;;;;23.88;51.91;99945.09;4959920;28;59156;-72
2021/07/05 08:27:48;;;;;;;;;4.00;4.00;;;;;23.98;51.91;99956.09;4962365;28;44808;-72
2021/07/05 08:30:13;;;;;;;;;4.00;4.00;;;;;24.00;52.06;99956.84;4959206;28;51500;-72
2021/07/05 08:32:39;;;;;;;;;3.75;2.50;;;;;24.07;51.89;99962.69;4923836;28;45460;-72
2021/07/05 08:35:05;;;;;;;;;4.00;4.00;;;;;24.12;51.78;99963.25;4960456;28;46120;-71
2021/07/05 08:37:31;;;;;;;;;3.00;3.00;;;;;24.15;51.09;99961.28;4944016;28;45350;-71
2021/07/05 08:39:56;;;;;;;;;4.00;4.00;;;;;24.19;51.28;99965.47;4947825;28;45287;-71
2021/07/05 08:42:23;;;;;;;;;3.25;3.25;;;;;24.21;51.60;99963.56;4950832;28;55153;-71
2021/07/05 08:44:48;;;;;;;;;3.00;3.00;;;;;24.24;50.88;99958.06;4963922;28;46243;-72
2021/07/05 08:47:14;;;;;;;;;3.25;3.25;;;;;24.23;50.65;99960.81;4966050;28;45641;-71
2021/07/05 08:49:39;;;;;;;;;2.75;2.00;;;;;24.21;50.63;99965.38;4967947;28;45422;-71
2021/07/05 08:52:05;;;;;;;;;3.00;3.00;;;;;24.21;51.36;99960.91;4949127;28;45619;-72
2021/07/05 08:54:30;;;;;;;;;3.25;2.25;;;;;24.23;51.23;99952.81;4951164;28;46468;-72
2021/07/05 08:56:59;;;;;;;;;5.25;3.00;;;;;24.23;51.22;99953.66;4956787;28;56920;-73
2021/07/05 08:59:24;;;;;;;;;3.00;3.00;;;;;24.24;50.71;99949.22;4958207;28;45577;-71
2021/07/05 09:01:51;;;;;;;;;4.00;3.50;;;;;24.22;50.90;99949.28;4951953;28;52983;-71
2021/07/05 09:04:17;;;;;;;;;3.00;3.00;;;;;24.22;50.67;99954.63;4953942;28;45485;-72
2021/07/05 09:07:05;;;;;;;;;4.00;4.00;;;;;24.24;50.79;99954.56;4949561;28;45810;-73
2021/07/05 09:09:31;;;;;;;;;2.00;2.00;;;;;24.21;51.45;99958.25;4943666;28;45350;-70
2021/07/05 09:12:02;;;;;;;;;2.75;2.75;;;;;24.20;50.81;99969.84;4956655;28;45552;-71
2021/07/05 09:14:27;;;;;;;;;3.25;3.25;;;;;24.16;50.65;99963.00;4958889;28;46095;-70
2021/07/05 09:16:53;;;;;;;;;3.00;3.00;;;;;24.12;51.18;99960.59;4956372;28;61516;-72
2021/07/05 09:19:39;;;;;;;;;3.00;3.00;;;;;24.06;51.22;99959.13;4959087;28;45372;-72
2021/07/05 09:22:06;;;;;;;;;3.25;3.25;;;;;24.09;51.12;99968.78;4938385;28;45558;-71
2021/07/05 09:24:36;;;;;;;;;2.00;2.00;;;;;24.15;50.86;99971.06;4938358;28;45536;-71
2021/07/05 09:27:23;;;;;;;;;2.00;2.00;;;;;24.17;50.79;99978.03;4954466;28;45336;-71
2021/07/05 09:29:51;;;;;;;;;2.75;2.75;;;;;24.18;50.70;99978.91;4943985;28;45387;-70
2021/07/05 09:32:33;;;;;;;;;2.00;2.00;;;;;24.19;51.07;99972.63;4976592;28;45389;-70
2021/07/05 09:34:59;;;;;;;;;1.75;1.75;;;;;24.16;50.56;99973.66;4950079;28;45444;-69
2021/07/05 09:37:26;;;;;;;;;4.50;4.00;;;;;24.17;50.20;99980.72;4960629;28;45399;-71
2021/07/05 09:40:00;;;;;;;;;2.25;2.25;;;;;24.15;50.34;99976.41;4959409;28;45396;-70
2021/07/05 09:42:26;;;;;;;;;2.00;2.00;;;;;24.10;50.70;99978.50;4958091;28;45438;-69
2021/07/05 09:44:51;;;;;;;;;3.00;2.00;;;;;24.09;51.13;99972.31;4942933;28;45729;-70
2021/07/05 09:47:17;;;;;;;;;3.00;3.00;;;;;24.09;50.98;99961.66;4955220;28;45509;-70
2021/07/05 09:49:43;;;;;;;;;4.25;4.00;;;;;24.10;51.27;99968.69;4952256;28;45410;-70
2021/07/05 09:52:26;;;;;;;;;4.00;3.00;;;;;24.14;50.71;99974.69;4952708;28;45521;-70
2021/07/05 09:54:59;;;;;;;;;2.00;2.00;;;;;24.10;51.06;99974.03;4954475;28;46214;-69
2021/07/05 09:57:39;;;;;;;;;2.50;2.50;;;;;24.13;50.65;99973.81;4951236;28;45434;-70
2021/07/05 10:00:05;;;;;;;;;3.00;3.00;;;;;24.14;50.86;99980.00;4957066;28;45418;-70
2021/07/05 10:02:30;;;;;;;;;2.00;2.00;;;;;24.11;51.17;99983.72;4954959;28;45638;-70
2021/07/05 10:05:17;;;;;;;;;3.00;3.00;;;;;24.13;51.03;99981.81;4933033;28;46310;-69
2021/07/05 10:07:42;;;;;;;;;3.00;2.50;;;;;24.13;51.23;99980.97;4950327;28;45412;-70
2021/07/05 10:10:16;;;;;;;;;2.00;2.00;;;;;24.16;51.20;99996.81;4933554;28;45262;-70
2021/07/05 10:12:59;;;;;;;;;3.25;2.25;;;;;24.09;50.76;99982.97;4949428;28;45247;-70
2021/07/05 10:15:25;;;;;;;;;3.00;2.50;;;;;24.16;51.29;99983.47;4951670;28;46428;-70
2021/07/05 10:17:56;;;;;;;;;2.00;2.00;;;;;24.16;50.71;99983.47;4944492;28;45447;-70
2021/07/05 10:20:31;;;;;;;;;3.00;2.00;;;;;24.16;51.55;99989.66;4944819;28;45390;-69
2021/07/05 10:23:07;;;;;;;;;3.00;3.00;;;;;24.15;51.26;99977.28;4973735;28;45464;-71
2021/07/05 10:25:34;;;;;;;;;4.00;4.00;;;;;24.16;51.33;99972.81;4950987;28;46126;-71
2021/07/05 10:28:00;;;;;;;;;3.75;3.00;;;;;24.18;50.88;99978.91;4942642;28;45414;-69
2021/07/05 10:30:26;;;;;;;;;2.00;2.00;;;;;24.19;50.92;99976.13;4952809;28;45876;-70
2021/07/05 10:32:51;;;;;;;;;2.75;2.75;;;;;24.19;51.29;99977.94;4961288;28;45394;-70
2021/07/05 10:35:24;;;;;;;;;2.00;2.00;;;;;24.17;50.71;99986.03;4965502;28;47056;-70
2021/07/05 10:38:06;;;;;;;;;2.00;2.00;;;;;24.23;51.01;99996.31;4921437;28;45431;-70
2021/07/05 10:40:38;;;;;;;;;2.25;2.25;;;;;24.26;50.83;100000.66;4942483;28;45435;-70
2021/07/05 10:43:04;;;;;;;;;4.75;4.00;;;;;24.27;50.66;100004.16;4969809;28;45341;-70
2021/07/05 10:46:14;;;;;;;;;2.50;2.50;;;;;24.31;50.37;100006.53;4930721;28;45968;-70
2021/07/05 10:48:41;;;;;;;;;1.75;1.75;;;;;24.30;50.69;100011.97;4943129;28;45327;-71
2021/07/05 10:51:08;;;;;;;;;2.00;2.00;;;;;24.29;50.50;100011.13;4944353;28;45338;-70
2021/07/05 10:53:33;;;;;;;;;3.75;2.75;;;;;24.31;50.60;100013.69;4956170;28;45423;-69
2021/07/05 10:55:59;;;;;;;;;3.00;3.00;;;;;24.30;50.68;100009.31;4957085;28;45381;-70
2021/07/05 10:58:33;;;;;;;;;2.50;2.50;;;;;24.34;50.61;100018.91;4937754;28;45368;-69
2021/07/05 11:01:05;;;;;;;;;2.00;2.00;;;;;24.32;50.69;100016.28;4952320;28;45340;-70
2021/07/05 11:03:37;;;;;;;;;3.00;3.00;;;;;24.35;50.43;100010.78;4931635;28;45980;-69
2021/07/05 11:06:10;;;;;;;;;1.75;1.75;;;;;24.33;50.21;100002.03;4948760;28;47599;-70
2021/07/05 11:08:49;;;;;;;;;1.50;1.50;;;;;24.33;50.29;100007.38;4954320;28;45839;-70
2021/07/05 11:11:55;;;;;;;;;2.25;2.25;;;;;24.33;50.46;100020.72;4942652;28;45395;-70
2021/07/05 11:14:28;;;;;;;;;2.00;2.00;;;;;24.33;50.39;100014.50;4908337;28;45673;-70
2021/07/05 11:17:17;;;;;;;;;2.50;2.50;;;;;24.37;50.51;100018.69;4952670;28;47569;-70
2021/07/05 11:19:47;;;;;;;;;3.50;3.50;;;;;24.42;50.23;100003.28;4958893;28;45318;-69
2021/07/05 11:22:29;;;;;;;;;2.00;2.00;;;;;24.44;49.89;99994.25;4960434;28;45387;-70
2021/07/05 11:25:09;;;;;;;;;3.00;3.00;;;;;24.46;50.12;100003.00;4958823;28;45384;-69
2021/07/05 11:27:48;;;;;;;;;3.00;2.25;;;;;24.48;49.26;99993.09;4954850;28;45773;-70
2021/07/05 11:30:19;;;;;;;;;2.00;2.00;;;;;24.52;49.52;99991.97;4955416;28;45423;-70